ěÝzenÝ letovÚho provozu ╚eskÚ republiky
Letiste: LKKV Aktualizace: 21.01.2020 22:00:26  UTC
 METAR LKKV 21.01. 22:00 ...
METAR LKKV 212200Z VRB02KT CAVOK M07/M07 Q1035 RMK REG QNH 1031=
 TAF LKKV 21.01. 17:00 ...
TAF LKKV 211700Z 2118/2300 VRB02KT CAVOK      TEMPO 2118/2121 7000 SCT013      BECMG 2121/2200 2500 BR BKN007      TEMPO 2200/2208 0700 FZFG BKN002      BECMG 2208/2210 23004KT 7000 SCT020      BECMG 2211/2213 27006KT BKN013      BECMG 2218/2220 VRB02KT      TEMPO 2221/2300 3000 BR BKN007=